sensor_id;sensor_type;location;lat;lon;timestamp;P1;durP1;ratioP1;P2;durP2;ratioP2
2972;SDS011;1496;51.404;7.232;2023-11-22T00:00:29;14.47;;;6.33;;
2972;SDS011;1496;51.404;7.232;2023-11-22T00:02:54;11.50;;;5.83;;
2972;SDS011;1496;51.404;7.232;2023-11-22T00:05:20;14.47;;;5.87;;
2972;SDS011;1496;51.404;7.232;2023-11-22T00:07:46;14.80;;;6.20;;
2972;SDS011;1496;51.404;7.232;2023-11-22T00:10:12;12.67;;;5.63;;
2972;SDS011;1496;51.404;7.232;2023-11-22T00:12:38;13.50;;;6.50;;
2972;SDS011;1496;51.404;7.232;2023-11-22T00:15:05;14.83;;;6.97;;
2972;SDS011;1496;51.404;7.232;2023-11-22T00:17:35;13.53;;;6.73;;
2972;SDS011;1496;51.404;7.232;2023-11-22T00:20:02;13.33;;;6.33;;
2972;SDS011;1496;51.404;7.232;2023-11-22T00:22:33;12.23;;;5.63;;
2972;SDS011;1496;51.404;7.232;2023-11-22T00:24:59;12.17;;;6.33;;
2972;SDS011;1496;51.404;7.232;2023-11-22T00:27:26;12.07;;;6.10;;
2972;SDS011;1496;51.404;7.232;2023-11-22T00:29:52;11.70;;;6.00;;
2972;SDS011;1496;51.404;7.232;2023-11-22T00:32:18;11.27;;;6.20;;
2972;SDS011;1496;51.404;7.232;2023-11-22T00:34:44;11.50;;;5.67;;
2972;SDS011;1496;51.404;7.232;2023-11-22T00:37:10;10.70;;;5.50;;
2972;SDS011;1496;51.404;7.232;2023-11-22T00:39:36;12.67;;;5.97;;
2972;SDS011;1496;51.404;7.232;2023-11-22T00:42:02;20.10;;;6.93;;
2972;SDS011;1496;51.404;7.232;2023-11-22T00:44:29;12.80;;;6.30;;
2972;SDS011;1496;51.404;7.232;2023-11-22T00:46:55;11.80;;;6.17;;
2972;SDS011;1496;51.404;7.232;2023-11-22T00:49:22;12.40;;;6.67;;
2972;SDS011;1496;51.404;7.232;2023-11-22T00:51:48;13.60;;;6.57;;
2972;SDS011;1496;51.404;7.232;2023-11-22T00:54:15;20.33;;;6.53;;
2972;SDS011;1496;51.404;7.232;2023-11-22T00:56:41;13.23;;;6.50;;
2972;SDS011;1496;51.404;7.232;2023-11-22T00:59:07;12.20;;;6.47;;
2972;SDS011;1496;51.404;7.232;2023-11-22T01:01:34;12.10;;;7.60;;
2972;SDS011;1496;51.404;7.232;2023-11-22T01:03:59;14.30;;;7.17;;
2972;SDS011;1496;51.404;7.232;2023-11-22T01:06:25;12.57;;;6.70;;
2972;SDS011;1496;51.404;7.232;2023-11-22T01:08:50;10.43;;;7.10;;
2972;SDS011;1496;51.404;7.232;2023-11-22T01:11:16;8.47;;;5.90;;
2972;SDS011;1496;51.404;7.232;2023-11-22T01:13:42;10.13;;;7.50;;
2972;SDS011;1496;51.404;7.232;2023-11-22T01:16:08;8.97;;;6.47;;
2972;SDS011;1496;51.404;7.232;2023-11-22T01:18:35;11.80;;;7.37;;
2972;SDS011;1496;51.404;7.232;2023-11-22T01:21:01;9.50;;;6.77;;
2972;SDS011;1496;51.404;7.232;2023-11-22T01:23:28;8.30;;;6.20;;
2972;SDS011;1496;51.404;7.232;2023-11-22T01:25:55;12.50;;;7.80;;
2972;SDS011;1496;51.404;7.232;2023-11-22T01:28:20;10.33;;;7.90;;
2972;SDS011;1496;51.404;7.232;2023-11-22T01:30:47;9.17;;;5.90;;
2972;SDS011;1496;51.404;7.232;2023-11-22T01:33:14;8.63;;;5.67;;
2972;SDS011;1496;51.404;7.232;2023-11-22T01:35:40;8.90;;;6.73;;
2972;SDS011;1496;51.404;7.232;2023-11-22T01:38:06;9.13;;;7.17;;
2972;SDS011;1496;51.404;7.232;2023-11-22T01:40:33;13.43;;;7.60;;
2972;SDS011;1496;51.404;7.232;2023-11-22T01:42:59;12.30;;;8.43;;
2972;SDS011;1496;51.404;7.232;2023-11-22T01:45:25;18.43;;;8.00;;
2972;SDS011;1496;51.404;7.232;2023-11-22T01:47:51;18.67;;;7.20;;
2972;SDS011;1496;51.404;7.232;2023-11-22T01:50:18;12.90;;;7.57;;
2972;SDS011;1496;51.404;7.232;2023-11-22T01:52:45;12.60;;;7.87;;
2972;SDS011;1496;51.404;7.232;2023-11-22T01:55:12;10.20;;;7.70;;
2972;SDS011;1496;51.404;7.232;2023-11-22T01:57:38;13.80;;;8.90;;
2972;SDS011;1496;51.404;7.232;2023-11-22T02:00:05;11.60;;;8.13;;
2972;SDS011;1496;51.404;7.232;2023-11-22T02:02:40;12.83;;;7.80;;
2972;SDS011;1496;51.404;7.232;2023-11-22T02:05:07;11.73;;;6.67;;
2972;SDS011;1496;51.404;7.232;2023-11-22T02:07:33;12.47;;;8.33;;
2972;SDS011;1496;51.404;7.232;2023-11-22T02:09:59;12.53;;;7.57;;
2972;SDS011;1496;51.404;7.232;2023-11-22T02:12:25;12.97;;;7.90;;
2972;SDS011;1496;51.404;7.232;2023-11-22T02:14:51;13.13;;;8.40;;
2972;SDS011;1496;51.404;7.232;2023-11-22T02:17:16;12.60;;;8.07;;
2972;SDS011;1496;51.404;7.232;2023-11-22T02:19:42;11.33;;;7.20;;
2972;SDS011;1496;51.404;7.232;2023-11-22T02:22:11;13.07;;;7.80;;
2972;SDS011;1496;51.404;7.232;2023-11-22T02:24:37;14.97;;;7.10;;
2972;SDS011;1496;51.404;7.232;2023-11-22T02:27:03;12.23;;;8.60;;
2972;SDS011;1496;51.404;7.232;2023-11-22T02:29:28;11.47;;;7.13;;
2972;SDS011;1496;51.404;7.232;2023-11-22T02:31:54;12.70;;;8.57;;
2972;SDS011;1496;51.404;7.232;2023-11-22T02:34:20;14.17;;;8.83;;
2972;SDS011;1496;51.404;7.232;2023-11-22T02:36:45;12.73;;;8.07;;
2972;SDS011;1496;51.404;7.232;2023-11-22T02:39:12;14.07;;;9.67;;
2972;SDS011;1496;51.404;7.232;2023-11-22T02:41:39;12.97;;;7.93;;
2972;SDS011;1496;51.404;7.232;2023-11-22T02:44:05;11.37;;;8.30;;
2972;SDS011;1496;51.404;7.232;2023-11-22T02:46:33;12.77;;;7.43;;
2972;SDS011;1496;51.404;7.232;2023-11-22T02:48:59;13.00;;;8.40;;
2972;SDS011;1496;51.404;7.232;2023-11-22T02:51:25;10.27;;;8.13;;
2972;SDS011;1496;51.404;7.232;2023-11-22T02:53:51;13.07;;;8.70;;
2972;SDS011;1496;51.404;7.232;2023-11-22T02:56:17;10.73;;;8.33;;
2972;SDS011;1496;51.404;7.232;2023-11-22T02:58:43;11.60;;;7.37;;
2972;SDS011;1496;51.404;7.232;2023-11-22T03:01:09;10.77;;;7.63;;
2972;SDS011;1496;51.404;7.232;2023-11-22T03:03:34;12.70;;;9.70;;
2972;SDS011;1496;51.404;7.232;2023-11-22T03:06:00;18.47;;;8.57;;
2972;SDS011;1496;51.404;7.232;2023-11-22T03:08:26;13.90;;;8.00;;
2972;SDS011;1496;51.404;7.232;2023-11-22T03:10:52;12.77;;;7.37;;
2972;SDS011;1496;51.404;7.232;2023-11-22T03:13:18;12.67;;;8.63;;
2972;SDS011;1496;51.404;7.232;2023-11-22T03:15:44;11.30;;;8.10;;
2972;SDS011;1496;51.404;7.232;2023-11-22T03:18:10;10.73;;;7.47;;
2972;SDS011;1496;51.404;7.232;2023-11-22T03:20:36;10.77;;;7.10;;
2972;SDS011;1496;51.404;7.232;2023-11-22T03:23:03;11.40;;;7.23;;
2972;SDS011;1496;51.404;7.232;2023-11-22T03:25:29;12.90;;;7.33;;
2972;SDS011;1496;51.404;7.232;2023-11-22T03:27:55;11.80;;;7.50;;
2972;SDS011;1496;51.404;7.232;2023-11-22T03:30:21;12.13;;;7.10;;
2972;SDS011;1496;51.404;7.232;2023-11-22T03:32:48;12.03;;;7.07;;
2972;SDS011;1496;51.404;7.232;2023-11-22T03:35:15;9.33;;;5.70;;
2972;SDS011;1496;51.404;7.232;2023-11-22T03:37:42;13.10;;;7.77;;
2972;SDS011;1496;51.404;7.232;2023-11-22T03:40:08;10.23;;;6.13;;
2972;SDS011;1496;51.404;7.232;2023-11-22T03:42:36;9.47;;;6.70;;
2972;SDS011;1496;51.404;7.232;2023-11-22T03:45:04;11.67;;;7.20;;
2972;SDS011;1496;51.404;7.232;2023-11-22T03:47:31;8.63;;;5.83;;
2972;SDS011;1496;51.404;7.232;2023-11-22T03:49:58;16.73;;;6.43;;
2972;SDS011;1496;51.404;7.232;2023-11-22T03:52:24;12.93;;;6.93;;
2972;SDS011;1496;51.404;7.232;2023-11-22T03:54:52;11.70;;;5.87;;
2972;SDS011;1496;51.404;7.232;2023-11-22T03:57:18;10.43;;;5.43;;
2972;SDS011;1496;51.404;7.232;2023-11-22T03:59:43;11.80;;;6.13;;
2972;SDS011;1496;51.404;7.232;2023-11-22T04:02:09;9.43;;;5.87;;
2972;SDS011;1496;51.404;7.232;2023-11-22T04:04:36;12.50;;;6.97;;
2972;SDS011;1496;51.404;7.232;2023-11-22T04:07:05;11.40;;;6.80;;
2972;SDS011;1496;51.404;7.232;2023-11-22T04:09:31;12.80;;;7.13;;
2972;SDS011;1496;51.404;7.232;2023-11-22T04:11:58;15.77;;;7.87;;
2972;SDS011;1496;51.404;7.232;2023-11-22T04:14:24;12.53;;;6.10;;
2972;SDS011;1496;51.404;7.232;2023-11-22T04:16:52;12.00;;;6.50;;
2972;SDS011;1496;51.404;7.232;2023-11-22T04:19:18;12.40;;;7.03;;
2972;SDS011;1496;51.404;7.232;2023-11-22T04:21:43;9.93;;;6.33;;
2972;SDS011;1496;51.404;7.232;2023-11-22T04:24:09;11.50;;;6.87;;
2972;SDS011;1496;51.404;7.232;2023-11-22T04:26:37;12.90;;;6.67;;
2972;SDS011;1496;51.404;7.232;2023-11-22T04:29:03;10.67;;;5.90;;
2972;SDS011;1496;51.404;7.232;2023-11-22T04:31:29;14.17;;;7.47;;
2972;SDS011;1496;51.404;7.232;2023-11-22T04:33:55;9.70;;;6.40;;
2972;SDS011;1496;51.404;7.232;2023-11-22T04:36:22;9.20;;;6.00;;
2972;SDS011;1496;51.404;7.232;2023-11-22T04:38:48;12.30;;;6.80;;
2972;SDS011;1496;51.404;7.232;2023-11-22T04:41:15;10.30;;;6.20;;
2972;SDS011;1496;51.404;7.232;2023-11-22T04:43:40;13.80;;;6.30;;
2972;SDS011;1496;51.404;7.232;2023-11-22T04:46:07;12.30;;;6.00;;
2972;SDS011;1496;51.404;7.232;2023-11-22T04:48:33;9.27;;;5.97;;
2972;SDS011;1496;51.404;7.232;2023-11-22T04:50:59;9.80;;;5.97;;
2972;SDS011;1496;51.404;7.232;2023-11-22T04:53:25;9.00;;;5.30;;
2972;SDS011;1496;51.404;7.232;2023-11-22T04:55:52;9.50;;;5.50;;
2972;SDS011;1496;51.404;7.232;2023-11-22T04:58:18;9.50;;;5.30;;
2972;SDS011;1496;51.404;7.232;2023-11-22T05:00:43;12.70;;;4.87;;
2972;SDS011;1496;51.404;7.232;2023-11-22T05:03:10;8.87;;;4.57;;
2972;SDS011;1496;51.404;7.232;2023-11-22T05:05:36;9.97;;;4.60;;
2972;SDS011;1496;51.404;7.232;2023-11-22T05:08:02;10.07;;;5.10;;
2972;SDS011;1496;51.404;7.232;2023-11-22T05:10:27;17.00;;;5.20;;
2972;SDS011;1496;51.404;7.232;2023-11-22T05:12:53;11.60;;;5.03;;
2972;SDS011;1496;51.404;7.232;2023-11-22T05:15:24;9.80;;;4.93;;
2972;SDS011;1496;51.404;7.232;2023-11-22T05:17:50;10.50;;;4.90;;
2972;SDS011;1496;51.404;7.232;2023-11-22T05:20:16;10.67;;;5.30;;
2972;SDS011;1496;51.404;7.232;2023-11-22T05:22:41;13.40;;;5.70;;
2972;SDS011;1496;51.404;7.232;2023-11-22T05:25:07;14.30;;;4.97;;
2972;SDS011;1496;51.404;7.232;2023-11-22T05:27:33;14.17;;;5.43;;
2972;SDS011;1496;51.404;7.232;2023-11-22T05:29:59;10.63;;;4.70;;
2972;SDS011;1496;51.404;7.232;2023-11-22T05:32:25;12.37;;;5.20;;
2972;SDS011;1496;51.404;7.232;2023-11-22T05:34:52;14.03;;;4.53;;
2972;SDS011;1496;51.404;7.232;2023-11-22T05:37:18;14.23;;;5.00;;
2972;SDS011;1496;51.404;7.232;2023-11-22T05:39:44;12.83;;;5.37;;
2972;SDS011;1496;51.404;7.232;2023-11-22T05:42:10;13.30;;;5.27;;
2972;SDS011;1496;51.404;7.232;2023-11-22T05:44:36;12.60;;;5.00;;
2972;SDS011;1496;51.404;7.232;2023-11-22T05:47:02;14.20;;;5.50;;
2972;SDS011;1496;51.404;7.232;2023-11-22T05:49:28;13.90;;;4.60;;
2972;SDS011;1496;51.404;7.232;2023-11-22T05:51:53;11.33;;;4.47;;
2972;SDS011;1496;51.404;7.232;2023-11-22T05:54:19;15.37;;;4.60;;
2972;SDS011;1496;51.404;7.232;2023-11-22T05:56:45;11.70;;;4.30;;
2972;SDS011;1496;51.404;7.232;2023-11-22T05:59:10;15.03;;;5.30;;
2972;SDS011;1496;51.404;7.232;2023-11-22T06:01:36;14.30;;;5.30;;
2972;SDS011;1496;51.404;7.232;2023-11-22T06:04:02;12.43;;;4.57;;
2972;SDS011;1496;51.404;7.232;2023-11-22T06:06:28;11.63;;;5.30;;
2972;SDS011;1496;51.404;7.232;2023-11-22T06:08:53;12.60;;;4.90;;
2972;SDS011;1496;51.404;7.232;2023-11-22T06:11:19;14.77;;;5.37;;
2972;SDS011;1496;51.404;7.232;2023-11-22T06:13:46;12.97;;;4.60;;
2972;SDS011;1496;51.404;7.232;2023-11-22T06:16:12;14.27;;;4.43;;
2972;SDS011;1496;51.404;7.232;2023-11-22T06:18:38;19.10;;;5.10;;
2972;SDS011;1496;51.404;7.232;2023-11-22T06:21:06;13.90;;;4.57;;
2972;SDS011;1496;51.404;7.232;2023-11-22T06:23:32;11.90;;;4.37;;
2972;SDS011;1496;51.404;7.232;2023-11-22T06:25:58;13.70;;;4.77;;
2972;SDS011;1496;51.404;7.232;2023-11-22T06:28:24;15.27;;;5.30;;
2972;SDS011;1496;51.404;7.232;2023-11-22T06:30:50;14.53;;;4.83;;
2972;SDS011;1496;51.404;7.232;2023-11-22T06:33:16;14.43;;;4.03;;
2972;SDS011;1496;51.404;7.232;2023-11-22T06:35:41;16.30;;;4.97;;
2972;SDS011;1496;51.404;7.232;2023-11-22T06:38:08;16.10;;;4.83;;
2972;SDS011;1496;51.404;7.232;2023-11-22T06:40:34;14.70;;;4.80;;
2972;SDS011;1496;51.404;7.232;2023-11-22T06:42:59;20.33;;;4.83;;
2972;SDS011;1496;51.404;7.232;2023-11-22T06:45:25;24.07;;;5.23;;
2972;SDS011;1496;51.404;7.232;2023-11-22T06:47:51;17.00;;;4.80;;
2972;SDS011;1496;51.404;7.232;2023-11-22T06:50:17;18.07;;;4.80;;
2972;SDS011;1496;51.404;7.232;2023-11-22T06:52:44;18.20;;;5.20;;
2972;SDS011;1496;51.404;7.232;2023-11-22T06:55:11;17.33;;;4.70;;
2972;SDS011;1496;51.404;7.232;2023-11-22T06:57:37;17.63;;;5.40;;
2972;SDS011;1496;51.404;7.232;2023-11-22T07:00:06;19.47;;;5.00;;
2972;SDS011;1496;51.404;7.232;2023-11-22T07:02:35;25.17;;;6.80;;
2972;SDS011;1496;51.404;7.232;2023-11-22T07:05:04;23.33;;;6.17;;
2972;SDS011;1496;51.404;7.232;2023-11-22T07:07:34;19.53;;;5.70;;
2972;SDS011;1496;51.404;7.232;2023-11-22T07:10:02;23.20;;;5.10;;
2972;SDS011;1496;51.404;7.232;2023-11-22T07:12:31;18.07;;;5.20;;
2972;SDS011;1496;51.404;7.232;2023-11-22T07:14:57;21.70;;;5.73;;
2972;SDS011;1496;51.404;7.232;2023-11-22T07:17:24;22.60;;;6.17;;
2972;SDS011;1496;51.404;7.232;2023-11-22T07:19:52;20.53;;;5.40;;
2972;SDS011;1496;51.404;7.232;2023-11-22T07:22:19;18.87;;;5.13;;
2972;SDS011;1496;51.404;7.232;2023-11-22T07:24:47;18.77;;;5.17;;
2972;SDS011;1496;51.404;7.232;2023-11-22T07:27:16;18.57;;;4.90;;
2972;SDS011;1496;51.404;7.232;2023-11-22T07:29:43;18.80;;;5.70;;
2972;SDS011;1496;51.404;7.232;2023-11-22T07:32:09;18.53;;;5.13;;
2972;SDS011;1496;51.404;7.232;2023-11-22T07:34:36;21.87;;;5.83;;
2972;SDS011;1496;51.404;7.232;2023-11-22T07:37:04;19.40;;;5.47;;
2972;SDS011;1496;51.404;7.232;2023-11-22T07:39:36;20.53;;;5.07;;
2972;SDS011;1496;51.404;7.232;2023-11-22T07:42:03;21.03;;;6.07;;
2972;SDS011;1496;51.404;7.232;2023-11-22T07:44:33;18.87;;;5.13;;
2972;SDS011;1496;51.404;7.232;2023-11-22T07:47:01;21.20;;;4.57;;
2972;SDS011;1496;51.404;7.232;2023-11-22T07:49:27;21.07;;;5.00;;
2972;SDS011;1496;51.404;7.232;2023-11-22T07:51:54;20.53;;;4.93;;
2972;SDS011;1496;51.404;7.232;2023-11-22T07:54:21;23.90;;;5.80;;
2972;SDS011;1496;51.404;7.232;2023-11-22T07:56:50;21.50;;;5.87;;
2972;SDS011;1496;51.404;7.232;2023-11-22T07:59:17;24.10;;;6.53;;
2972;SDS011;1496;51.404;7.232;2023-11-22T08:01:43;22.33;;;6.20;;
2972;SDS011;1496;51.404;7.232;2023-11-22T08:04:09;22.40;;;5.83;;
2972;SDS011;1496;51.404;7.232;2023-11-22T08:06:35;20.37;;;6.30;;
2972;SDS011;1496;51.404;7.232;2023-11-22T08:09:01;26.57;;;7.10;;
2972;SDS011;1496;51.404;7.232;2023-11-22T08:11:27;30.27;;;6.83;;
2972;SDS011;1496;51.404;7.232;2023-11-22T08:13:53;19.27;;;5.93;;
2972;SDS011;1496;51.404;7.232;2023-11-22T08:16:24;20.63;;;5.70;;
2972;SDS011;1496;51.404;7.232;2023-11-22T08:18:50;20.10;;;5.63;;
2972;SDS011;1496;51.404;7.232;2023-11-22T08:21:16;23.77;;;6.63;;
2972;SDS011;1496;51.404;7.232;2023-11-22T08:23:43;22.10;;;7.00;;
2972;SDS011;1496;51.404;7.232;2023-11-22T08:26:11;23.00;;;6.80;;
2972;SDS011;1496;51.404;7.232;2023-11-22T08:28:37;25.17;;;5.33;;
2972;SDS011;1496;51.404;7.232;2023-11-22T08:31:03;23.13;;;5.47;;
2972;SDS011;1496;51.404;7.232;2023-11-22T08:33:29;23.93;;;5.90;;
2972;SDS011;1496;51.404;7.232;2023-11-22T08:35:55;25.27;;;5.30;;
2972;SDS011;1496;51.404;7.232;2023-11-22T08:38:24;24.60;;;5.27;;
2972;SDS011;1496;51.404;7.232;2023-11-22T08:40:53;25.07;;;5.57;;
2972;SDS011;1496;51.404;7.232;2023-11-22T08:43:20;26.80;;;5.67;;
2972;SDS011;1496;51.404;7.232;2023-11-22T08:45:50;26.43;;;5.30;;
2972;SDS011;1496;51.404;7.232;2023-11-22T08:48:16;24.77;;;4.70;;
2972;SDS011;1496;51.404;7.232;2023-11-22T08:50:42;25.03;;;5.23;;
2972;SDS011;1496;51.404;7.232;2023-11-22T08:53:09;23.87;;;5.17;;
2972;SDS011;1496;51.404;7.232;2023-11-22T08:55:35;24.50;;;6.03;;
2972;SDS011;1496;51.404;7.232;2023-11-22T08:58:01;26.33;;;5.93;;
2972;SDS011;1496;51.404;7.232;2023-11-22T09:00:26;24.67;;;6.07;;
2972;SDS011;1496;51.404;7.232;2023-11-22T09:02:54;26.07;;;6.30;;
2972;SDS011;1496;51.404;7.232;2023-11-22T09:05:20;22.43;;;5.33;;
2972;SDS011;1496;51.404;7.232;2023-11-22T09:07:47;23.30;;;5.23;;
2972;SDS011;1496;51.404;7.232;2023-11-22T09:10:13;26.03;;;5.93;;
2972;SDS011;1496;51.404;7.232;2023-11-22T09:12:39;30.10;;;5.30;;
2972;SDS011;1496;51.404;7.232;2023-11-22T09:15:10;26.43;;;6.00;;
2972;SDS011;1496;51.404;7.232;2023-11-22T09:17:41;24.07;;;5.90;;
2972;SDS011;1496;51.404;7.232;2023-11-22T09:20:17;24.97;;;5.90;;
2972;SDS011;1496;51.404;7.232;2023-11-22T09:22:48;25.63;;;5.50;;
2972;SDS011;1496;51.404;7.232;2023-11-22T09:25:19;16.90;;;5.60;;
2972;SDS011;1496;51.404;7.232;2023-11-22T09:27:54;12.83;;;5.90;;
2972;SDS011;1496;51.404;7.232;2023-11-22T09:30:22;8.23;;;5.60;;
2972;SDS011;1496;51.404;7.232;2023-11-22T09:33:00;8.67;;;5.07;;
2972;SDS011;1496;51.404;7.232;2023-11-22T09:35:34;8.50;;;4.60;;
2972;SDS011;1496;51.404;7.232;2023-11-22T09:38:00;5.93;;;4.67;;
2972;SDS011;1496;51.404;7.232;2023-11-22T09:40:27;9.10;;;5.10;;
2972;SDS011;1496;51.404;7.232;2023-11-22T09:43:01;10.27;;;5.00;;
2972;SDS011;1496;51.404;7.232;2023-11-22T09:45:28;7.00;;;4.63;;
2972;SDS011;1496;51.404;7.232;2023-11-22T09:47:55;8.37;;;5.20;;
2972;SDS011;1496;51.404;7.232;2023-11-22T09:50:26;11.30;;;5.53;;
2972;SDS011;1496;51.404;7.232;2023-11-22T09:53:01;6.60;;;4.40;;
2972;SDS011;1496;51.404;7.232;2023-11-22T09:55:31;9.90;;;5.10;;
2972;SDS011;1496;51.404;7.232;2023-11-22T09:57:58;7.90;;;5.97;;
2972;SDS011;1496;51.404;7.232;2023-11-22T10:00:26;7.37;;;5.03;;
2972;SDS011;1496;51.404;7.232;2023-11-22T10:02:55;9.23;;;5.03;;
2972;SDS011;1496;51.404;7.232;2023-11-22T10:05:22;9.57;;;5.00;;
2972;SDS011;1496;51.404;7.232;2023-11-22T10:07:49;11.00;;;5.93;;
2972;SDS011;1496;51.404;7.232;2023-11-22T10:10:15;5.97;;;4.30;;
2972;SDS011;1496;51.404;7.232;2023-11-22T10:12:43;7.90;;;4.80;;
2972;SDS011;1496;51.404;7.232;2023-11-22T10:15:13;10.87;;;5.57;;
2972;SDS011;1496;51.404;7.232;2023-11-22T10:17:39;8.87;;;5.50;;
2972;SDS011;1496;51.404;7.232;2023-11-22T10:20:05;8.07;;;4.20;;
2972;SDS011;1496;51.404;7.232;2023-11-22T10:22:45;10.10;;;4.50;;
2972;SDS011;1496;51.404;7.232;2023-11-22T10:25:13;12.60;;;4.10;;
2972;SDS011;1496;51.404;7.232;2023-11-22T10:27:43;6.80;;;4.27;;
2972;SDS011;1496;51.404;7.232;2023-11-22T10:30:11;9.67;;;4.90;;
2972;SDS011;1496;51.404;7.232;2023-11-22T10:32:37;9.33;;;5.40;;
2972;SDS011;1496;51.404;7.232;2023-11-22T10:35:04;7.37;;;4.77;;
2972;SDS011;1496;51.404;7.232;2023-11-22T10:37:31;5.80;;;3.87;;
2972;SDS011;1496;51.404;7.232;2023-11-22T10:39:57;7.43;;;4.90;;
2972;SDS011;1496;51.404;7.232;2023-11-22T10:42:23;6.63;;;4.57;;
2972;SDS011;1496;51.404;7.232;2023-11-22T10:44:51;9.83;;;3.77;;
2972;SDS011;1496;51.404;7.232;2023-11-22T10:47:26;4.83;;;3.00;;
2972;SDS011;1496;51.404;7.232;2023-11-22T10:49:55;4.50;;;3.30;;
2972;SDS011;1496;51.404;7.232;2023-11-22T10:52:21;6.43;;;4.20;;
2972;SDS011;1496;51.404;7.232;2023-11-22T10:54:53;5.50;;;3.60;;
2972;SDS011;1496;51.404;7.232;2023-11-22T10:57:27;5.10;;;3.20;;
2972;SDS011;1496;51.404;7.232;2023-11-22T11:00:03;5.03;;;3.13;;
2972;SDS011;1496;51.404;7.232;2023-11-22T11:02:35;5.90;;;3.57;;
2972;SDS011;1496;51.404;7.232;2023-11-22T11:05:10;4.50;;;3.00;;
2972;SDS011;1496;51.404;7.232;2023-11-22T11:07:44;6.53;;;3.57;;
2972;SDS011;1496;51.404;7.232;2023-11-22T11:10:22;4.83;;;3.33;;
2972;SDS011;1496;51.404;7.232;2023-11-22T11:12:48;6.30;;;3.47;;
2972;SDS011;1496;51.404;7.232;2023-11-22T11:15:14;5.60;;;3.33;;
2972;SDS011;1496;51.404;7.232;2023-11-22T11:17:42;6.17;;;3.50;;
2972;SDS011;1496;51.404;7.232;2023-11-22T11:20:15;4.90;;;3.20;;
2972;SDS011;1496;51.404;7.232;2023-11-22T11:22:43;5.43;;;3.93;;
2972;SDS011;1496;51.404;7.232;2023-11-22T11:25:13;3.77;;;2.77;;
2972;SDS011;1496;51.404;7.232;2023-11-22T11:27:43;6.23;;;3.40;;
2972;SDS011;1496;51.404;7.232;2023-11-22T11:32:58;8.10;;;3.70;;
2972;SDS011;1496;51.404;7.232;2023-11-22T11:38:13;6.33;;;3.30;;
2972;SDS011;1496;51.404;7.232;2023-11-22T11:40:43;4.83;;;2.73;;
2972;SDS011;1496;51.404;7.232;2023-11-22T11:43:10;4.20;;;3.00;;
2972;SDS011;1496;51.404;7.232;2023-11-22T11:45:39;6.27;;;3.07;;
2972;SDS011;1496;51.404;7.232;2023-11-22T11:48:15;5.83;;;2.90;;
2972;SDS011;1496;51.404;7.232;2023-11-22T11:50:41;6.80;;;3.17;;
2972;SDS011;1496;51.404;7.232;2023-11-22T11:53:08;10.33;;;3.07;;
2972;SDS011;1496;51.404;7.232;2023-11-22T11:55:37;5.30;;;3.60;;
2972;SDS011;1496;51.404;7.232;2023-11-22T11:58:06;6.50;;;3.30;;
2972;SDS011;1496;51.404;7.232;2023-11-22T12:00:34;3.90;;;2.97;;
2972;SDS011;1496;51.404;7.232;2023-11-22T12:03:05;3.10;;;2.10;;
2972;SDS011;1496;51.404;7.232;2023-11-22T12:05:32;5.20;;;2.93;;
2972;SDS011;1496;51.404;7.232;2023-11-22T12:07:58;5.33;;;2.70;;
2972;SDS011;1496;51.404;7.232;2023-11-22T12:10:23;3.80;;;2.50;;
2972;SDS011;1496;51.404;7.232;2023-11-22T12:12:50;6.10;;;2.60;;
2972;SDS011;1496;51.404;7.232;2023-11-22T12:15:15;5.00;;;3.17;;
2972;SDS011;1496;51.404;7.232;2023-11-22T12:18:02;3.60;;;2.60;;
2972;SDS011;1496;51.404;7.232;2023-11-22T12:20:27;4.57;;;3.00;;
2972;SDS011;1496;51.404;7.232;2023-11-22T12:22:57;4.90;;;2.97;;
2972;SDS011;1496;51.404;7.232;2023-11-22T12:25:31;4.20;;;2.80;;
2972;SDS011;1496;51.404;7.232;2023-11-22T12:27:57;4.20;;;2.83;;
2972;SDS011;1496;51.404;7.232;2023-11-22T12:32:56;4.40;;;2.80;;
2972;SDS011;1496;51.404;7.232;2023-11-22T12:35:25;4.67;;;3.10;;
2972;SDS011;1496;51.404;7.232;2023-11-22T12:37:51;4.73;;;3.13;;
2972;SDS011;1496;51.404;7.232;2023-11-22T12:40:19;2.93;;;2.40;;
2972;SDS011;1496;51.404;7.232;2023-11-22T12:42:49;3.83;;;2.70;;
2972;SDS011;1496;51.404;7.232;2023-11-22T12:45:20;4.20;;;3.40;;
2972;SDS011;1496;51.404;7.232;2023-11-22T12:47:46;7.47;;;2.90;;
2972;SDS011;1496;51.404;7.232;2023-11-22T12:53:07;4.37;;;2.80;;
2972;SDS011;1496;51.404;7.232;2023-11-22T12:55:37;3.27;;;2.20;;
2972;SDS011;1496;51.404;7.232;2023-11-22T12:58:06;4.50;;;2.83;;
2972;SDS011;1496;51.404;7.232;2023-11-22T13:00:32;4.00;;;2.23;;
2972;SDS011;1496;51.404;7.232;2023-11-22T13:02:58;4.93;;;1.77;;
2972;SDS011;1496;51.404;7.232;2023-11-22T13:05:24;2.50;;;2.00;;
2972;SDS011;1496;51.404;7.232;2023-11-22T13:07:50;6.67;;;2.20;;
2972;SDS011;1496;51.404;7.232;2023-11-22T13:10:19;5.10;;;2.53;;
2972;SDS011;1496;51.404;7.232;2023-11-22T13:12:50;3.87;;;2.20;;
2972;SDS011;1496;51.404;7.232;2023-11-22T13:15:16;3.37;;;2.13;;
2972;SDS011;1496;51.404;7.232;2023-11-22T13:17:42;2.93;;;1.97;;
2972;SDS011;1496;51.404;7.232;2023-11-22T13:20:08;3.23;;;1.93;;
2972;SDS011;1496;51.404;7.232;2023-11-22T13:22:42;2.47;;;1.80;;
2972;SDS011;1496;51.404;7.232;2023-11-22T13:25:08;4.40;;;2.77;;
2972;SDS011;1496;51.404;7.232;2023-11-22T13:27:38;3.57;;;1.90;;
2972;SDS011;1496;51.404;7.232;2023-11-22T13:30:04;3.60;;;2.80;;
2972;SDS011;1496;51.404;7.232;2023-11-22T13:32:31;7.00;;;2.70;;
2972;SDS011;1496;51.404;7.232;2023-11-22T13:34:57;4.00;;;2.17;;
2972;SDS011;1496;51.404;7.232;2023-11-22T13:37:24;3.83;;;1.90;;
2972;SDS011;1496;51.404;7.232;2023-11-22T13:39:50;4.37;;;2.37;;
2972;SDS011;1496;51.404;7.232;2023-11-22T13:42:16;4.80;;;2.07;;
2972;SDS011;1496;51.404;7.232;2023-11-22T13:44:42;2.33;;;1.73;;
2972;SDS011;1496;51.404;7.232;2023-11-22T13:47:09;6.40;;;1.73;;
2972;SDS011;1496;51.404;7.232;2023-11-22T13:49:35;2.70;;;1.67;;
2972;SDS011;1496;51.404;7.232;2023-11-22T13:52:04;3.93;;;2.30;;
2972;SDS011;1496;51.404;7.232;2023-11-22T13:54:30;2.57;;;1.83;;
2972;SDS011;1496;51.404;7.232;2023-11-22T13:56:58;1.87;;;1.30;;
2972;SDS011;1496;51.404;7.232;2023-11-22T13:59:23;2.50;;;1.60;;
2972;SDS011;1496;51.404;7.232;2023-11-22T14:01:49;4.57;;;1.27;;
2972;SDS011;1496;51.404;7.232;2023-11-22T14:04:15;2.03;;;1.37;;
2972;SDS011;1496;51.404;7.232;2023-11-22T14:06:40;2.20;;;1.60;;
2972;SDS011;1496;51.404;7.232;2023-11-22T14:09:06;1.83;;;1.50;;
2972;SDS011;1496;51.404;7.232;2023-11-22T14:11:34;1.83;;;1.57;;
2972;SDS011;1496;51.404;7.232;2023-11-22T14:14:02;2.50;;;1.30;;
2972;SDS011;1496;51.404;7.232;2023-11-22T14:16:28;2.27;;;1.73;;
2972;SDS011;1496;51.404;7.232;2023-11-22T14:18:56;2.40;;;1.90;;
2972;SDS011;1496;51.404;7.232;2023-11-22T14:21:22;1.63;;;1.53;;
2972;SDS011;1496;51.404;7.232;2023-11-22T14:23:50;2.47;;;1.50;;
2972;SDS011;1496;51.404;7.232;2023-11-22T14:26:15;2.50;;;1.70;;
2972;SDS011;1496;51.404;7.232;2023-11-22T14:28:41;2.93;;;1.60;;
2972;SDS011;1496;51.404;7.232;2023-11-22T14:31:08;6.97;;;1.90;;
2972;SDS011;1496;51.404;7.232;2023-11-22T14:33:34;2.47;;;1.60;;
2972;SDS011;1496;51.404;7.232;2023-11-22T14:36:00;1.97;;;1.30;;
2972;SDS011;1496;51.404;7.232;2023-11-22T14:38:26;2.87;;;1.87;;
2972;SDS011;1496;51.404;7.232;2023-11-22T14:40:52;3.50;;;1.67;;
2972;SDS011;1496;51.404;7.232;2023-11-22T14:43:18;3.63;;;1.67;;
2972;SDS011;1496;51.404;7.232;2023-11-22T14:45:43;2.30;;;1.70;;
2972;SDS011;1496;51.404;7.232;2023-11-22T14:48:09;2.17;;;1.70;;
2972;SDS011;1496;51.404;7.232;2023-11-22T14:50:36;3.47;;;1.90;;
2972;SDS011;1496;51.404;7.232;2023-11-22T14:53:02;4.70;;;1.70;;
2972;SDS011;1496;51.404;7.232;2023-11-22T14:55:28;3.40;;;2.27;;
2972;SDS011;1496;51.404;7.232;2023-11-22T14:57:54;2.20;;;1.20;;
2972;SDS011;1496;51.404;7.232;2023-11-22T15:00:22;2.70;;;1.97;;
2972;SDS011;1496;51.404;7.232;2023-11-22T15:02:48;2.93;;;2.00;;
2972;SDS011;1496;51.404;7.232;2023-11-22T15:05:19;2.23;;;1.50;;
2972;SDS011;1496;51.404;7.232;2023-11-22T15:07:45;1.90;;;1.20;;
2972;SDS011;1496;51.404;7.232;2023-11-22T15:10:11;1.80;;;1.67;;
2972;SDS011;1496;51.404;7.232;2023-11-22T15:12:38;1.93;;;1.63;;
2972;SDS011;1496;51.404;7.232;2023-11-22T15:15:07;4.47;;;1.70;;
2972;SDS011;1496;51.404;7.232;2023-11-22T15:17:34;2.13;;;1.80;;